Time;durP1;ratioP1;P1;durP2;ratioP2;P2;SDS_P1;SDS_P2;PMS_P1;PMS_P2;Temp;Humidity;BMP_temperature;BMP_pressure;BME280_temperature;BME280_humidity;BME280_pressure;Samples;Min_cycle;Max_cycle;Signal;HPM_P1;HPM_P2
2021/11/11 00:00:25;;;;;;;8.20;4.25;;;18.20;64.70;;;;;;5030472;28;20442;-78
2021/11/11 00:02:53;;;;;;;8.80;4.63;;;18.20;64.70;;;;;;5030372;28;20026;-78
2021/11/11 00:05:19;;;;;;;8.60;4.38;;;18.10;64.60;;;;;;5030200;28;20052;-78
2021/11/11 00:07:45;;;;;;;6.50;4.22;;;18.10;64.60;;;;;;5030607;28;20021;-78
2021/11/11 00:10:13;;;;;;;9.63;4.82;;;18.10;64.70;;;;;;5030124;28;20025;-78
2021/11/11 00:12:39;;;;;;;9.73;5.13;;;18.10;64.60;;;;;;5029037;28;20021;-78
2021/11/11 00:15:08;;;;;;;7.28;3.90;;;18.10;64.70;;;;;;5029924;28;20029;-78
2021/11/11 00:17:34;;;;;;;7.53;4.00;;;18.10;64.70;;;;;;5030044;28;20021;-79
2021/11/11 00:20:00;;;;;;;7.47;4.50;;;18.00;64.60;;;;;;5029893;28;20052;-79
2021/11/11 00:22:26;;;;;;;8.25;4.78;;;18.00;64.90;;;;;;5028815;28;20473;-78
2021/11/11 00:24:52;;;;;;;8.73;4.65;;;18.00;64.70;;;;;;5029845;28;20070;-78
2021/11/11 00:27:18;;;;;;;9.38;5.03;;;18.00;64.60;;;;;;5028995;28;20112;-78
2021/11/11 00:29:44;;;;;;;7.70;4.38;;;18.00;64.60;;;;;;5030170;28;20043;-78
2021/11/11 00:32:10;;;;;;;6.72;4.25;;;18.00;64.60;;;;;;5029837;28;20034;-78
2021/11/11 00:34:36;;;;;;;6.57;4.07;;;18.00;64.50;;;;;;5030077;28;20022;-78
2021/11/11 00:37:03;;;;;;;8.38;4.22;;;18.00;64.50;;;;;;5029555;28;20040;-79
2021/11/11 00:39:29;;;;;;;7.28;4.38;;;18.00;64.50;;;;;;5029907;28;20090;-78
2021/11/11 00:41:54;;;;;;;8.27;4.85;;;18.00;64.50;;;;;;5029620;28;20078;-79
2021/11/11 00:44:20;;;;;;;7.35;4.55;;;17.90;64.40;;;;;;5029690;28;20022;-78
2021/11/11 00:46:46;;;;;;;7.97;5.18;;;17.90;64.40;;;;;;5029976;28;20079;-79
2021/11/11 00:49:12;;;;;;;8.88;4.38;;;17.90;64.40;;;;;;5029336;28;20400;-78
2021/11/11 00:51:39;;;;;;;7.53;4.55;;;17.90;64.40;;;;;;5029443;28;20025;-79
2021/11/11 00:54:06;;;;;;;8.75;4.57;;;17.90;64.40;;;;;;5029224;28;20017;-78
2021/11/11 00:56:32;;;;;;;7.88;4.75;;;17.90;64.30;;;;;;5035065;28;20405;-77
2021/11/11 00:58:58;;;;;;;9.95;5.25;;;17.90;64.40;;;;;;5049204;28;20038;-78
2021/11/11 01:01:28;;;;;;;9.73;4.60;;;17.90;64.40;;;;;;5049572;28;20021;-78
2021/11/11 01:03:57;;;;;;;6.07;4.40;;;17.80;64.40;;;;;;5048942;28;20048;-78
2021/11/11 01:06:26;;;;;;;7.03;4.53;;;17.80;64.40;;;;;;5049217;28;20066;-78
2021/11/11 01:08:53;;;;;;;8.35;5.05;;;17.80;64.30;;;;;;5048138;28;20033;-78
2021/11/11 01:11:19;;;;;;;7.13;4.68;;;17.80;64.40;;;;;;5049496;28;20024;-78
2021/11/11 01:13:44;;;;;;;8.13;4.70;;;17.80;64.30;;;;;;5047998;28;20029;-78
2021/11/11 01:16:10;;;;;;;7.70;4.68;;;17.80;64.30;;;;;;5048730;28;20170;-78
2021/11/11 01:18:36;;;;;;;7.32;4.00;;;17.80;64.30;;;;;;5047954;28;20025;-78
2021/11/11 01:21:03;;;;;;;6.68;4.40;;;17.80;64.30;;;;;;5049003;28;20033;-79
2021/11/11 01:23:29;;;;;;;8.63;3.72;;;17.70;64.20;;;;;;5049058;28;20025;-78
2021/11/11 01:25:54;;;;;;;6.60;4.22;;;17.70;64.20;;;;;;5048988;28;20468;-79
2021/11/11 01:28:20;;;;;;;7.63;4.97;;;17.70;64.20;;;;;;5049134;28;20067;-79
2021/11/11 01:30:46;;;;;;;7.35;4.78;;;17.70;64.20;;;;;;5049222;28;20202;-78
2021/11/11 01:33:14;;;;;;;7.65;4.63;;;17.70;64.30;;;;;;5048567;28;20581;-78
2021/11/11 01:35:39;;;;;;;7.53;4.47;;;17.70;64.20;;;;;;5048553;28;20415;-78
2021/11/11 01:38:05;;;;;;;8.00;4.40;;;17.60;64.10;;;;;;5048585;28;20074;-79
2021/11/11 01:40:32;;;;;;;8.35;4.78;;;17.60;64.10;;;;;;5047584;28;20038;-79
2021/11/11 01:43:00;;;;;;;7.47;4.78;;;17.60;64.10;;;;;;5048762;28;20085;-79
2021/11/11 01:45:29;;;;;;;7.28;4.40;;;17.60;64.10;;;;;;5048650;28;20017;-78
2021/11/11 01:47:56;;;;;;;7.47;4.43;;;17.60;64.10;;;;;;5048373;28;20115;-79
2021/11/11 01:50:23;;;;;;;7.35;4.80;;;17.60;64.10;;;;;;5048736;28;20040;-79
2021/11/11 01:52:49;;;;;;;7.22;4.63;;;17.60;64.20;;;;;;5047588;28;20512;-79
2021/11/11 01:55:15;;;;;;;7.25;4.80;;;17.60;64.10;;;;;;5048204;28;20036;-79
2021/11/11 01:57:41;;;;;;;7.03;4.55;;;17.60;64.10;;;;;;5031705;28;20021;-78
2021/11/11 02:00:15;;;;;;;9.38;5.15;;;17.60;64.10;;;;;;5028541;28;20493;-79
2021/11/11 02:02:41;;;;;;;7.95;3.83;;;17.60;64.10;;;;;;5028457;28;20098;-79
2021/11/11 02:05:07;;;;;;;7.50;5.25;;;17.60;64.10;;;;;;5027070;28;20045;-78
2021/11/11 02:07:33;;;;;;;9.50;4.90;;;17.60;64.10;;;;;;5028704;28;20108;-79
2021/11/11 02:09:58;;;;;;;8.63;4.75;;;17.50;64.10;;;;;;5028145;28;20165;-79
2021/11/11 02:12:24;;;;;;;8.57;5.13;;;17.50;64.10;;;;;;5028400;28;20128;-79
2021/11/11 02:14:50;;;;;;;7.72;4.57;;;17.50;64.10;;;;;;5028586;28;20021;-79
2021/11/11 02:17:25;;;;;;;6.82;4.80;;;17.50;64.10;;;;;;5027897;28;20082;-78
2021/11/11 02:20:06;;;;;;;10.48;5.70;;;17.50;64.10;;;;;;5028531;28;20017;-79
2021/11/11 02:22:32;;;;;;;6.72;4.50;;;17.50;64.10;;;;;;5028341;28;20048;-79
2021/11/11 02:24:58;;;;;;;6.35;4.72;;;17.50;64.10;;;;;;5027998;28;20477;-78
2021/11/11 02:27:23;;;;;;;5.88;4.32;;;17.50;64.10;;;;;;5028331;28;20417;-78
2021/11/11 02:29:49;;;;;;;8.05;4.78;;;17.50;64.10;;;;;;5028299;28;20489;-78
2021/11/11 02:32:16;;;;;;;7.80;5.15;;;17.50;64.10;;;;;;5027960;28;20134;-78
2021/11/11 02:34:43;;;;;;;8.48;5.35;;;17.50;64.10;;;;;;5028195;28;20378;-78
2021/11/11 02:37:09;;;;;;;7.82;4.85;;;17.50;64.10;;;;;;5027855;28;20120;-78
2021/11/11 02:39:38;;;;;;;7.53;4.60;;;17.40;64.00;;;;;;5026791;28;20109;-78
2021/11/11 02:42:04;;;;;;;6.95;4.07;;;17.40;64.10;;;;;;5027898;28;20439;-78
2021/11/11 02:44:31;;;;;;;7.13;4.93;;;17.40;64.00;;;;;;5027809;28;20100;-78
2021/11/11 02:46:58;;;;;;;7.78;5.13;;;17.40;64.10;;;;;;5027522;28;20151;-78
2021/11/11 02:49:32;;;;;;;8.57;4.70;;;17.40;64.10;;;;;;5028006;28;20423;-78
2021/11/11 02:51:58;;;;;;;8.40;5.05;;;17.40;64.10;;;;;;5027788;28;20051;-78
2021/11/11 02:54:24;;;;;;;9.23;5.18;;;17.40;64.00;;;;;;5027803;28;20026;-78
2021/11/11 02:56:51;;;;;;;7.38;4.38;;;17.40;64.00;;;;;;5037382;28;20101;-78
2021/11/11 02:59:16;;;;;;;6.65;4.47;;;17.40;64.00;;;;;;5047276;28;20021;-78
2021/11/11 03:01:42;;;;;;;6.65;4.50;;;17.40;64.10;;;;;;5047837;28;20505;-78
2021/11/11 03:04:07;;;;;;;7.30;4.20;;;17.40;64.10;;;;;;5047482;28;20021;-78
2021/11/11 03:06:33;;;;;;;10.13;5.18;;;17.40;64.00;;;;;;5046460;28;20033;-78
2021/11/11 03:09:00;;;;;;;8.07;4.80;;;17.40;64.00;;;;;;5047584;28;20023;-78
2021/11/11 03:11:32;;;;;;;8.55;5.05;;;17.40;64.10;;;;;;5047356;28;20036;-78
2021/11/11 03:13:58;;;;;;;5.45;3.97;;;17.40;64.00;;;;;;5045806;28;20028;-78
2021/11/11 03:16:24;;;;;;;7.70;4.32;;;17.40;64.00;;;;;;5047534;28;20063;-78
2021/11/11 03:18:50;;;;;;;7.38;4.70;;;17.30;64.00;;;;;;5046507;28;20116;-78
2021/11/11 03:21:16;;;;;;;5.85;4.80;;;17.30;64.00;;;;;;5047427;28;20100;-79
2021/11/11 03:23:42;;;;;;;6.38;4.70;;;17.30;64.00;;;;;;5047373;28;20443;-79
2021/11/11 03:26:08;;;;;;;7.15;5.05;;;17.30;64.00;;;;;;5047073;28;20077;-78
2021/11/11 03:28:34;;;;;;;9.05;5.00;;;17.30;64.80;;;;;;5047445;28;20469;-78
2021/11/11 03:31:00;;;;;;;7.35;4.38;;;17.30;64.10;;;;;;5047163;28;20044;-78
2021/11/11 03:33:25;;;;;;;7.18;4.53;;;17.30;64.00;;;;;;5050716;28;20049;-79
2021/11/11 03:35:51;;;;;;;9.32;5.18;;;17.30;64.10;;;;;;5050893;28;20037;-78
2021/11/11 03:38:18;;;;;;;7.50;4.70;;;17.30;64.10;;;;;;5049033;28;20029;-78
2021/11/11 03:40:45;;;;;;;6.93;4.90;;;17.30;64.10;;;;;;5050830;28;20477;-79
2021/11/11 03:43:12;;;;;;;7.75;4.70;;;17.30;63.90;;;;;;5050463;28;20018;-79
2021/11/11 03:45:38;;;;;;;7.13;4.90;;;17.30;63.90;;;;;;5050661;28;20033;-78
2021/11/11 03:48:05;;;;;;;8.30;4.50;;;17.30;63.90;;;;;;5050548;28;20087;-79
2021/11/11 03:50:31;;;;;;;8.52;4.90;;;17.30;63.90;;;;;;5050413;28;20025;-79
2021/11/11 03:52:57;;;;;;;6.70;5.00;;;17.30;63.90;;;;;;5050328;28;20027;-79
2021/11/11 03:55:25;;;;;;;6.70;5.07;;;17.30;63.90;;;;;;5050104;28;20096;-78
2021/11/11 03:57:53;;;;;;;8.18;4.85;;;17.30;63.90;;;;;;5032483;28;20026;-78
2021/11/11 04:00:20;;;;;;;9.23;5.20;;;17.30;64.00;;;;;;5030824;28;20049;-79
2021/11/11 04:02:46;;;;;;;8.18;5.45;;;17.30;63.90;;;;;;5030146;28;20497;-79
2021/11/11 04:05:13;;;;;;;8.15;4.57;;;17.30;63.90;;;;;;5030086;28;20481;-79
2021/11/11 04:07:38;;;;;;;6.72;4.60;;;17.40;63.90;;;;;;5030185;28;20486;-79
2021/11/11 04:10:06;;;;;;;5.88;4.00;;;17.40;63.90;;;;;;5028469;28;20036;-79
2021/11/11 04:12:32;;;;;;;9.05;5.15;;;17.40;63.80;;;;;;5030361;28;20032;-78
2021/11/11 04:14:57;;;;;;;8.32;4.75;;;17.40;63.80;;;;;;5029849;28;20030;-78
2021/11/11 04:17:23;;;;;;;7.35;4.47;;;17.40;63.80;;;;;;5030134;28;20040;-78
2021/11/11 04:19:49;;;;;;;7.28;4.85;;;17.40;63.70;;;;;;5029014;28;20030;-78
2021/11/11 04:22:14;;;;;;;5.97;4.45;;;17.40;63.70;;;;;;5029754;28;20021;-78
2021/11/11 04:24:41;;;;;;;8.27;4.65;;;17.40;63.80;;;;;;5029850;28;20527;-78
2021/11/11 04:27:13;;;;;;;6.85;4.57;;;17.40;63.70;;;;;;5029051;28;20028;-78
2021/11/11 04:29:44;;;;;;;7.60;4.43;;;17.40;63.70;;;;;;5030080;28;20511;-78
2021/11/11 04:32:12;;;;;;;10.27;5.18;;;17.40;63.70;;;;;;5029926;28;20104;-78
2021/11/11 04:34:40;;;;;;;8.98;6.10;;;17.40;63.70;;;;;;5028885;28;20029;-79
2021/11/11 04:45:24;;;;;;;8.20;4.82;;;17.40;63.60;;;;;;5029098;28;20104;-78
2021/11/11 05:01:22;;;;;;;7.28;4.38;;;17.50;63.60;;;;;;5029149;28;20033;-79
2021/11/11 05:03:49;;;;;;;8.30;4.50;;;17.50;63.60;;;;;;5029779;28;20033;-78
2021/11/11 05:06:16;;;;;;;7.70;4.57;;;17.50;63.60;;;;;;5029021;28;20078;-78
2021/11/11 05:08:42;;;;;;;7.45;4.65;;;17.50;63.60;;;;;;5029491;28;20442;-78
2021/11/11 05:11:08;;;;;;;6.68;4.85;;;17.50;63.50;;;;;;5028007;28;20089;-78
2021/11/11 05:13:34;;;;;;;7.05;4.28;;;17.50;63.50;;;;;;5029413;28;20028;-78
2021/11/11 05:16:00;;;;;;;7.50;4.25;;;17.50;63.50;;;;;;5028928;28;20121;-78
2021/11/11 05:18:25;;;;;;;7.60;4.85;;;17.50;63.60;;;;;;5029191;28;20071;-79
2021/11/11 05:20:51;;;;;;;7.78;4.30;;;17.50;63.50;;;;;;5029637;28;20513;-79
2021/11/11 05:23:17;;;;;;;6.53;5.03;;;17.50;63.50;;;;;;5029009;28;20026;-79
2021/11/11 05:25:43;;;;;;;6.38;4.18;;;17.50;63.40;;;;;;5029207;28;20493;-79
2021/11/11 05:28:10;;;;;;;5.88;4.18;;;17.50;63.40;;;;;;5028987;28;20053;-79
2021/11/11 05:30:35;;;;;;;8.00;5.22;;;17.50;63.30;;;;;;5029017;28;20033;-79
2021/11/11 05:33:01;;;;;;;6.97;4.32;;;17.50;63.30;;;;;;5028714;28;20021;-78
2021/11/11 05:35:27;;;;;;;6.75;4.40;;;17.50;63.30;;;;;;5028666;28;20026;-79
2021/11/11 05:37:53;;;;;;;7.35;5.00;;;17.60;63.40;;;;;;5029027;28;20417;-79
2021/11/11 05:40:20;;;;;;;7.00;4.53;;;17.60;63.40;;;;;;5029306;28;20025;-79
2021/11/11 05:42:47;;;;;;;7.75;4.60;;;17.60;63.40;;;;;;5029075;28;20458;-79
2021/11/11 05:45:15;;;;;;;9.05;5.88;;;17.50;63.30;;;;;;5028564;28;20796;-79
2021/11/11 05:47:41;;;;;;;7.80;4.35;;;17.60;63.40;;;;;;5028931;28;20450;-78
2021/11/11 05:50:08;;;;;;;6.63;4.80;;;17.60;63.30;;;;;;5028380;28;20109;-79
2021/11/11 05:52:34;;;;;;;6.20;4.40;;;17.60;63.30;;;;;;5028764;28;20025;-78
2021/11/11 05:55:00;;;;;;;6.80;4.88;;;17.60;63.40;;;;;;5027964;28;20028;-78
2021/11/11 05:57:26;;;;;;;6.10;4.22;;;17.60;63.30;;;;;;5042907;28;20055;-79
2021/11/11 05:59:51;;;;;;;8.20;4.93;;;17.60;63.30;;;;;;5048824;28;20100;-78
2021/11/11 06:02:17;;;;;;;6.78;4.65;;;17.60;63.30;;;;;;5048369;28;20055;-78
2021/11/11 06:04:43;;;;;;;7.00;4.35;;;17.70;63.30;;;;;;5048128;28;20036;-78
2021/11/11 06:07:10;;;;;;;7.10;4.70;;;17.70;63.60;;;;;;5046860;28;20033;-79
2021/11/11 06:09:36;;;;;;;7.03;4.63;;;17.70;63.30;;;;;;5048532;28;20022;-79
2021/11/11 06:12:02;;;;;;;7.13;4.57;;;17.70;63.20;;;;;;5048056;28;20054;-79
2021/11/11 06:14:28;;;;;;;7.47;4.40;;;17.70;63.20;;;;;;5048216;28;20074;-79
2021/11/11 06:16:54;;;;;;;5.97;4.63;;;17.70;63.20;;;;;;5044475;27;20489;-79
2021/11/11 06:19:20;;;;;;;5.50;4.10;;;17.70;63.10;;;;;;5039348;28;20021;-78
2021/11/11 06:21:46;;;;;;;6.20;4.60;;;17.70;63.10;;;;;;5033853;28;20034;-80
2021/11/11 06:24:14;;;;;;;6.60;4.38;;;17.80;63.20;;;;;;5038756;28;20021;-78
2021/11/11 06:26:41;;;;;;;6.45;3.80;;;17.80;63.20;;;;;;5027197;28;20033;-79
2021/11/11 06:29:08;;;;;;;8.55;4.68;;;17.80;63.20;;;;;;5043096;28;20024;-79
2021/11/11 06:31:34;;;;;;;6.55;4.30;;;17.80;63.20;;;;;;5048250;28;20489;-80
2021/11/11 06:34:00;;;;;;;5.25;3.70;;;17.80;63.20;;;;;;5047437;28;20085;-80
2021/11/11 06:36:25;;;;;;;6.22;4.38;;;17.80;63.10;;;;;;5047686;28;20085;-79
2021/11/11 06:38:51;;;;;;;6.63;4.35;;;17.90;63.20;;;;;;5048240;28;20032;-80
2021/11/11 06:41:18;;;;;;;5.63;3.83;;;17.90;63.20;;;;;;5032574;28;20037;-80
2021/11/11 06:43:43;;;;;;;6.70;4.38;;;17.90;63.20;;;;;;5027917;28;20030;-80
2021/11/11 06:46:10;;;;;;;5.43;4.28;;;17.90;63.20;;;;;;5026174;28;20042;-79
2021/11/11 06:48:36;;;;;;;7.40;3.92;;;18.00;63.10;;;;;;5028028;28;20014;-79
2021/11/11 06:51:03;;;;;;;6.53;4.25;;;18.00;63.10;;;;;;5027832;28;20036;-78
2021/11/11 06:53:29;;;;;;;6.05;3.85;;;18.00;63.00;;;;;;5027965;28;20424;-78
2021/11/11 06:55:56;;;;;;;5.65;4.25;;;18.00;62.90;;;;;;5027786;28;20102;-79
2021/11/11 06:58:23;;;;;;;7.07;4.70;;;18.00;62.90;;;;;;5026919;28;20120;-79
2021/11/11 07:00:52;;;;;;;5.93;4.05;;;18.00;62.80;;;;;;5028113;28;20083;-78
2021/11/11 07:03:18;;;;;;;7.05;3.97;;;18.00;62.70;;;;;;5027823;28;20053;-79
2021/11/11 07:05:44;;;;;;;6.28;3.97;;;18.10;62.80;;;;;;5027751;28;20480;-79
2021/11/11 07:08:11;;;;;;;6.15;4.47;;;18.10;62.70;;;;;;5029238;28;20116;-80
2021/11/11 07:10:41;;;;;;;8.18;4.45;;;18.10;62.70;;;;;;5031160;28;20053;-78
2021/11/11 07:13:07;;;;;;;5.45;3.85;;;18.10;62.70;;;;;;5031124;28;20065;-79
2021/11/11 07:15:34;;;;;;;6.32;4.13;;;18.10;62.70;;;;;;5030864;28;20041;-78
2021/11/11 07:18:00;;;;;;;4.75;3.75;;;18.10;62.80;;;;;;5045949;28;20027;-79
2021/11/11 07:20:26;;;;;;;5.95;4.03;;;18.10;62.80;;;;;;5049634;28;20025;-78
2021/11/11 07:22:54;;;;;;;8.77;4.30;;;18.10;62.70;;;;;;5051122;28;20077;-78
2021/11/11 07:25:20;;;;;;;6.45;4.03;;;18.10;62.70;;;;;;5051137;28;20025;-78
2021/11/11 07:27:46;;;;;;;7.68;4.47;;;18.10;62.70;;;;;;5049409;28;20021;-78
2021/11/11 07:30:15;;;;;;;7.93;4.68;;;18.10;62.70;;;;;;5050399;28;20025;-78
2021/11/11 07:32:41;;;;;;;6.57;4.28;;;18.10;62.70;;;;;;5050860;28;20397;-79
2021/11/11 07:35:10;;;;;;;8.70;4.65;;;18.10;62.80;;;;;;5050538;28;20057;-79
2021/11/11 07:37:41;;;;;;;7.88;4.90;;;18.10;62.70;;;;;;5050736;28;20025;-78
2021/11/11 07:40:08;;;;;;;5.65;3.95;;;18.10;62.70;;;;;;5049165;28;20045;-78
2021/11/11 07:42:36;;;;;;;6.68;4.22;;;18.10;62.70;;;;;;5050312;28;20025;-78
2021/11/11 07:45:06;;;;;;;6.80;4.03;;;18.10;62.70;;;;;;5050500;28;20025;-78
2021/11/11 07:47:32;;;;;;;7.50;4.38;;;18.00;62.60;;;;;;5050281;27;20033;-79
2021/11/11 07:49:59;;;;;;;6.50;4.60;;;18.00;62.60;;;;;;5050334;28;20050;-78
2021/11/11 07:52:26;;;;;;;6.43;4.53;;;18.00;62.60;;;;;;5050370;28;20057;-78
2021/11/11 07:54:53;;;;;;;6.68;4.65;;;18.00;62.60;;;;;;5050857;28;20048;-79
2021/11/11 07:57:24;;;;;;;7.50;4.82;;;18.00;62.50;;;;;;5049289;28;20041;-79
2021/11/11 07:59:51;;;;;;;6.13;4.20;;;18.00;62.50;;;;;;5049481;28;20116;-78
2021/11/11 08:02:18;;;;;;;6.22;4.45;;;18.00;62.50;;;;;;5050347;28;20437;-79
2021/11/11 08:04:45;;;;;;;8.90;4.72;;;18.00;62.40;;;;;;5050391;28;20392;-79
2021/11/11 08:07:12;;;;;;;5.95;4.55;;;18.00;62.40;;;;;;5049930;28;20021;-78
2021/11/11 08:09:38;;;;;;;6.72;4.13;;;18.00;62.40;;;;;;5050030;28;20043;-79
2021/11/11 08:12:04;;;;;;;4.95;4.10;;;17.90;62.30;;;;;;5049970;28;20484;-79
2021/11/11 08:14:30;;;;;;;6.43;4.07;;;18.00;62.40;;;;;;5050209;28;20032;-79
2021/11/11 08:16:56;;;;;;;8.15;4.90;;;18.00;62.40;;;;;;5040384;28;20535;-80
2021/11/11 08:19:22;;;;;;;6.97;4.47;;;17.90;62.40;;;;;;5049363;28;20069;-80
2021/11/11 08:21:48;;;;;;;6.03;4.28;;;18.00;63.20;;;;;;5036706;28;20057;-80
2021/11/11 08:24:14;;;;;;;6.57;4.30;;;18.00;62.40;;;;;;5028296;28;20056;-79
2021/11/11 08:26:39;;;;;;;5.57;4.43;;;17.90;62.30;;;;;;5030231;28;20049;-79
2021/11/11 08:29:05;;;;;;;8.05;4.57;;;18.00;62.40;;;;;;5036760;28;20430;-80
2021/11/11 08:31:31;;;;;;;6.03;4.22;;;18.00;62.40;;;;;;5047727;28;20446;-80
2021/11/11 08:33:57;;;;;;;6.47;4.68;;;18.00;62.40;;;;;;5039121;28;20014;-82
2021/11/11 08:36:25;;;;;;;8.50;5.20;;;17.90;62.30;;;;;;5029970;28;20035;-82
2021/11/11 08:38:51;;;;;;;5.90;4.10;;;17.90;62.30;;;;;;5030357;28;20025;-80
2021/11/11 08:41:17;;;;;;;8.50;4.47;;;17.90;62.30;;;;;;5029680;28;20025;-83
2021/11/11 08:43:42;;;;;;;6.53;4.43;;;17.90;62.40;;;;;;5029832;28;20029;-84
2021/11/11 08:46:08;;;;;;;7.22;4.55;;;17.90;62.40;;;;;;5039717;28;20461;-82
2021/11/11 08:48:34;;;;;;;6.68;4.78;;;17.90;62.50;;;;;;5049431;28;20021;-84
2021/11/11 08:51:00;;;;;;;5.82;4.10;;;17.90;62.70;;;;;;5049467;28;20032;-79
2021/11/11 08:53:29;;;;;;;7.95;5.10;;;17.90;62.90;;;;;;5049398;28;20473;-80
2021/11/11 08:55:54;;;;;;;8.30;6.10;;;17.90;63.20;;;;;;5049197;28;20044;-82
2021/11/11 08:58:20;;;;;;;7.22;5.13;;;17.90;63.40;;;;;;5049825;28;20017;-82
2021/11/11 09:00:50;;;;;;;12.50;5.22;;;17.90;63.40;;;;;;5049569;28;20029;-81
2021/11/11 09:03:17;;;;;;;11.75;10.10;;;17.90;63.50;;;;;;5049118;28;20017;-80
2021/11/11 09:05:44;;;;;;;28.85;10.20;;;17.90;63.60;;;;;;5049175;28;20044;-82
2021/11/11 09:08:12;;;;;;;14.43;7.50;;;17.90;64.30;;;;;;5048843;28;20516;-83
2021/11/11 09:10:40;;;;;;;10.65;6.20;;;17.90;64.00;;;;;;5049311;28;20024;-83
2021/11/11 09:13:06;;;;;;;10.63;6.15;;;17.90;64.30;;;;;;5048959;28;20493;-86
2021/11/11 09:15:32;;;;;;;12.35;6.38;;;18.00;64.50;;;;;;5049511;28;20022;-82
2021/11/11 09:18:00;;;;;;;12.98;6.28;;;18.00;64.40;;;;;;5048245;28;20037;-80
2021/11/11 09:20:28;;;;;;;27.73;22.02;;;18.00;65.10;;;;;;5053652;28;20112;-80
2021/11/11 09:22:55;;;;;;;32.72;26.20;;;18.00;65.10;;;;;;5038613;28;20042;-80
2021/11/11 09:25:22;;;;;;;24.17;16.20;;;18.00;65.20;;;;;;5029432;28;20439;-77
2021/11/11 09:27:48;;;;;;;20.77;13.70;;;18.00;65.30;;;;;;5029204;28;20025;-82
2021/11/11 09:30:18;;;;;;;19.00;14.30;;;18.00;65.40;;;;;;5027991;28;20026;-76
2021/11/11 09:32:45;;;;;;;20.33;14.77;;;18.00;66.30;;;;;;5029087;28;20029;-76
2021/11/11 09:35:12;;;;;;;19.30;13.98;;;18.00;65.50;;;;;;5028632;28;20064;-78
2021/11/11 09:37:38;;;;;;;26.80;13.90;;;18.00;65.50;;;;;;5032712;28;20077;-80
2021/11/11 09:40:08;;;;;;;20.08;13.30;;;18.00;65.50;;;;;;5028398;28;20034;-80
2021/11/11 09:42:34;;;;;;;16.40;12.45;;;18.00;65.30;;;;;;5028852;28;20028;-87
2021/11/11 09:45:01;;;;;;;19.20;12.27;;;18.00;65.00;;;;;;5028702;28;20022;-80
2021/11/11 09:47:27;;;;;;;13.80;11.73;;;18.00;65.70;;;;;;5033167;28;20041;-81
2021/11/11 09:49:52;;;;;;;17.08;11.15;;;18.00;65.00;;;;;;5038150;28;20438;-85
2021/11/11 09:52:19;;;;;;;17.58;11.57;;;18.00;65.00;;;;;;5036801;28;20056;-76
2021/11/11 10:00:15;;;;;;;12.27;9.10;;;18.00;65.00;;;;;;5038037;28;20036;-75
2021/11/11 10:02:40;;;;;;;15.65;9.52;;;18.00;64.90;;;;;;5036668;28;20021;-75
2021/11/11 10:05:08;;;;;;;16.30;10.48;;;18.00;64.90;;;;;;5036900;28;20092;-78
2021/11/11 10:07:34;;;;;;;14.07;9.52;;;18.00;64.80;;;;;;5038103;28;20036;-76
2021/11/11 10:10:00;;;;;;;13.52;8.80;;;18.00;64.70;;;;;;5040853;28;20021;-77
2021/11/11 10:12:25;;;;;;;12.30;9.30;;;18.00;64.70;;;;;;5047983;28;20032;-80
2021/11/11 10:15:08;;;;;;;13.23;9.43;;;18.00;64.80;;;;;;5048552;28;20036;-78
2021/11/11 10:17:42;;;;;;;14.02;8.32;;;18.00;64.90;;;;;;5048148;28;20036;-77
2021/11/11 10:20:10;;;;;;;13.32;9.10;;;18.00;65.00;;;;;;5047881;28;20029;-77
2021/11/11 10:22:37;;;;;;;13.52;8.38;;;18.00;64.50;;;;;;5038008;28;20074;-77
2021/11/11 10:25:06;;;;;;;24.10;19.27;;;18.00;65.10;;;;;;5030079;28;20025;-80
2021/11/11 10:27:50;;;;;;;26.85;21.60;;;18.10;64.90;;;;;;5045460;28;20466;-76
2021/11/11 10:30:27;;;;;;;20.58;16.95;;;18.10;64.70;;;;;;5048042;28;20028;-76
2021/11/11 10:32:56;;;;;;;20.63;16.35;;;18.10;64.60;;;;;;5047950;28;20078;-82
2021/11/11 10:35:28;;;;;;;19.35;14.45;;;18.20;64.50;;;;;;5048102;28;20025;-83
2021/11/11 10:38:00;;;;;;;20.88;14.02;;;18.30;64.40;;;;;;5042670;28;20029;-79
2021/11/11 10:40:41;;;;;;;17.08;12.40;;;18.30;64.20;;;;;;5048770;28;20028;-78
2021/11/11 10:43:14;;;;;;;15.40;11.45;;;18.40;64.20;;;;;;5040818;28;20037;-82
2021/11/11 10:45:50;;;;;;;18.48;11.15;;;18.40;64.20;;;;;;5031521;28;20094;-77
2021/11/11 10:48:18;;;;;;;14.40;10.32;;;18.50;64.20;;;;;;5031418;28;20025;-78
2021/11/11 10:50:57;;;;;;;14.07;10.00;;;18.60;64.30;;;;;;5031201;28;20025;-77
2021/11/11 10:53:30;;;;;;;13.20;8.95;;;18.60;64.30;;;;;;5030037;28;20408;-80
2021/11/11 10:55:58;;;;;;;12.80;8.65;;;18.60;64.30;;;;;;5031101;28;20112;-77
2021/11/11 10:58:33;;;;;;;15.90;8.95;;;18.70;64.40;;;;;;5035190;28;20038;-81
2021/11/11 11:01:05;;;;;;;10.70;7.87;;;18.80;64.20;;;;;;5051215;28;20478;-78
2021/11/11 11:03:42;;;;;;;10.40;7.40;;;18.80;64.20;;;;;;5051269;28;20021;-78
2021/11/11 11:06:11;;;;;;;13.35;8.15;;;18.80;64.20;;;;;;5050876;28;20537;-78
2021/11/11 11:08:44;;;;;;;10.07;7.43;;;18.90;64.20;;;;;;5048626;28;20108;-77
2021/11/11 11:11:15;;;;;;;17.52;7.38;;;18.90;64.20;;;;;;5039185;28;20430;-78
2021/11/11 11:13:49;;;;;;;14.68;7.03;;;19.00;64.30;;;;;;5040748;28;20021;-78
2021/11/11 11:16:20;;;;;;;11.13;6.88;;;19.00;64.40;;;;;;5039710;28;20112;-78
2021/11/11 11:18:54;;;;;;;15.13;7.13;;;19.00;64.30;;;;;;5044725;28;20025;-84
2021/11/11 11:21:23;;;;;;;9.95;5.57;;;19.10;64.50;;;;;;5051647;28;20021;-80
2021/11/11 11:23:51;;;;;;;12.43;6.35;;;19.10;64.60;;;;;;5036585;28;20113;-78
2021/11/11 11:26:37;;;;;;;22.23;7.03;;;19.10;65.80;;;;;;5038099;28;20061;-80
2021/11/11 11:31:50;;;;;;;10.23;5.70;;;19.20;64.80;;;;;;5031066;28;20025;-78
2021/11/11 11:34:23;;;;;;;12.60;6.53;;;19.30;65.10;;;;;;5037493;28;20025;-79
2021/11/11 11:36:53;;;;;;;17.10;6.07;;;19.30;66.00;;;;;;5039155;28;20029;-81
2021/11/11 11:39:25;;;;;;;10.10;5.65;;;19.30;65.20;;;;;;5038638;28;20033;-81
2021/11/11 11:41:52;;;;;;;11.30;5.57;;;19.30;65.30;;;;;;5039461;28;20018;-80
2021/11/11 11:44:28;;;;;;;11.65;6.25;;;19.40;65.60;;;;;;5037758;28;20025;-83
2021/11/11 11:47:37;;;;;;;8.70;5.07;;;19.40;65.50;;;;;;5040035;28;20545;-81
2021/11/11 11:50:06;;;;;;;9.55;5.47;;;19.50;65.60;;;;;;5048721;28;20017;-79
2021/11/11 11:52:34;;;;;;;10.25;5.75;;;19.50;65.40;;;;;;5041300;28;20032;-82
2021/11/11 11:55:10;;;;;;;9.95;5.10;;;19.50;65.30;;;;;;5039635;28;20021;-85
2021/11/11 12:15:49;;;;;;;12.68;5.25;;;;;;;;;;5049982;28;20426;-84
2021/11/11 12:40:00;;;;;;;8.52;4.53;;;;;;;;;;5040379;28;20040;-77
2021/11/11 12:42:34;;;;;;;11.82;6.95;;;;;;;;;;5037689;28;20045;-76
2021/11/11 12:45:00;;;;;;;13.98;9.27;;;;;;;;;;5040562;28;20049;-77
2021/11/11 12:47:32;;;;;;;20.20;12.00;;;;;;;;;;5042494;28;20133;-76
2021/11/11 12:50:18;;;;;;;14.88;9.85;;;;;;;;;;5034456;28;20017;-76
2021/11/11 12:52:45;;;;;;;20.58;9.63;;;;;;;;;;5049484;28;20104;-76
2021/11/11 12:55:17;;;;;;;18.52;10.23;;;;;;;;;;5049072;28;20175;-75
2021/11/11 12:57:57;;;;;;;23.77;12.00;;;;;;;;;;5049559;28;20498;-80
2021/11/11 13:00:49;;;;;;;19.65;9.73;;;;;;;;;;5049655;28;20033;-80
2021/11/11 13:03:16;;;;;;;19.20;9.52;;;;;;;;;;5049483;28;20078;-83
2021/11/11 13:05:58;;;;;;;13.30;8.77;;;19.40;67.00;;;;;;5048467;28;20477;-80
2021/11/11 13:08:42;;;;;;;14.55;8.18;;;19.50;66.90;;;;;;5049533;28;20025;-79
2021/11/11 13:11:10;;;;;;;16.02;8.93;;;19.50;66.90;;;;;;5047289;28;20495;-80
2021/11/11 13:13:36;;;;;;;13.18;8.27;;;19.50;66.60;;;;;;5031620;28;20036;-78
2021/11/11 13:16:17;;;;;;;13.50;7.85;;;19.50;66.60;;;;;;5038609;28;20033;-78
2021/11/11 13:18:42;;;;;;;11.27;7.07;;;19.50;67.30;;;;;;5033639;28;20357;-78
2021/11/11 13:24:28;;;;;;;13.27;6.45;;;19.50;67.50;;;;;;5031378;28;20082;-78
2021/11/11 14:00:47;;;;;;;8.77;4.60;;;19.40;68.20;;;;;;5036109;28;20054;-79
2021/11/11 15:47:10;;;;;;;5.68;3.97;;;19.20;68.50;;;;;;5050292;28;20044;-78
2021/11/11 16:21:59;;;;;;;7.63;4.50;;;19.20;69.90;;;;;;5049835;28;20054;-78
2021/11/11 16:24:24;;;;;;;8.95;4.25;;;19.20;69.70;;;;;;5045646;28;20033;-78
2021/11/11 16:26:51;;;;;;;8.25;4.93;;;19.20;69.80;;;;;;5048796;28;20050;-78
2021/11/11 16:29:17;;;;;;;7.28;4.40;;;19.20;70.10;;;;;;5049445;28;20037;-78
2021/11/11 16:31:42;;;;;;;14.57;4.85;;;19.30;70.50;;;;;;5041347;28;20028;-77
2021/11/11 16:34:08;;;;;;;6.55;4.15;;;19.30;71.40;;;;;;5032518;28;20040;-78
2021/11/11 16:36:38;;;;;;;19.48;5.72;;;19.40;71.30;;;;;;5040818;28;20054;-78
2021/11/11 16:39:04;;;;;;;7.43;4.32;;;19.50;71.60;;;;;;5037194;28;20020;-78
2021/11/11 16:41:30;;;;;;;8.27;4.25;;;19.60;71.50;;;;;;5045438;28;20068;-77
2021/11/11 16:43:56;;;;;;;8.18;4.00;;;19.60;71.40;;;;;;5028147;28;20029;-77
2021/11/11 16:46:22;;;;;;;6.95;3.92;;;19.70;71.30;;;;;;5028744;28;20107;-76
2021/11/11 16:48:47;;;;;;;6.78;4.22;;;19.70;71.50;;;;;;5032266;28;20093;-78
2021/11/11 16:51:13;;;;;;;6.93;4.25;;;19.80;71.50;;;;;;5037304;28;20155;-77